sensor_id;sensor_type;location;lat;lon;timestamp;temperature;humidity
65374;SHT31;52070;53.760;9.678;2023-09-30T00:01:45;12.40;90.89
65374;SHT31;52070;53.760;9.678;2023-09-30T00:04:12;12.40;90.94
65374;SHT31;52070;53.760;9.678;2023-09-30T00:06:39;12.42;91.00
65374;SHT31;52070;53.760;9.678;2023-09-30T00:09:07;12.37;91.11
65374;SHT31;52070;53.760;9.678;2023-09-30T00:11:34;12.40;91.23
65374;SHT31;52070;53.760;9.678;2023-09-30T00:14:01;12.38;91.27
65374;SHT31;52070;53.760;9.678;2023-09-30T00:16:28;12.37;91.47
65374;SHT31;52070;53.760;9.678;2023-09-30T00:18:55;12.40;91.58
65374;SHT31;52070;53.760;9.678;2023-09-30T00:21:24;12.34;91.66
65374;SHT31;52070;53.760;9.678;2023-09-30T00:23:51;12.37;91.70
65374;SHT31;52070;53.760;9.678;2023-09-30T00:26:19;12.34;91.80
65374;SHT31;52070;53.760;9.678;2023-09-30T00:28:46;12.34;91.88
65374;SHT31;52070;53.760;9.678;2023-09-30T00:31:13;12.35;91.98
65374;SHT31;52070;53.760;9.678;2023-09-30T00:33:40;12.38;91.99
65374;SHT31;52070;53.760;9.678;2023-09-30T00:36:08;12.40;91.99
65374;SHT31;52070;53.760;9.678;2023-09-30T00:38:36;12.44;91.98
65374;SHT31;52070;53.760;9.678;2023-09-30T00:41:03;12.45;91.95
65374;SHT31;52070;53.760;9.678;2023-09-30T00:43:32;12.44;91.91
65374;SHT31;52070;53.760;9.678;2023-09-30T00:46:02;12.45;91.97
65374;SHT31;52070;53.760;9.678;2023-09-30T00:48:32;12.48;91.98
65374;SHT31;52070;53.760;9.678;2023-09-30T00:50:59;12.52;91.97
65374;SHT31;52070;53.760;9.678;2023-09-30T00:53:27;12.58;92.00
65374;SHT31;52070;53.760;9.678;2023-09-30T00:55:55;12.64;92.10
65374;SHT31;52070;53.760;9.678;2023-09-30T00:58:23;12.72;92.00
65374;SHT31;52070;53.760;9.678;2023-09-30T01:00:53;12.78;91.96
65374;SHT31;52070;53.760;9.678;2023-09-30T01:03:21;12.81;91.94
65374;SHT31;52070;53.760;9.678;2023-09-30T01:05:49;12.85;91.89
65374;SHT31;52070;53.760;9.678;2023-09-30T01:08:16;12.89;91.87
65374;SHT31;52070;53.760;9.678;2023-09-30T01:10:44;12.92;91.78
65374;SHT31;52070;53.760;9.678;2023-09-30T01:13:11;12.93;91.60
65374;SHT31;52070;53.760;9.678;2023-09-30T01:15:38;12.95;91.56
65374;SHT31;52070;53.760;9.678;2023-09-30T01:18:07;13.00;91.45
65374;SHT31;52070;53.760;9.678;2023-09-30T01:20:34;12.99;91.32
65374;SHT31;52070;53.760;9.678;2023-09-30T01:23:03;12.99;91.30
65374;SHT31;52070;53.760;9.678;2023-09-30T01:25:30;12.93;91.19
65374;SHT31;52070;53.760;9.678;2023-09-30T01:27:59;12.95;91.15
65374;SHT31;52070;53.760;9.678;2023-09-30T01:30:32;12.98;91.15
65374;SHT31;52070;53.760;9.678;2023-09-30T01:32:59;12.99;91.13
65374;SHT31;52070;53.760;9.678;2023-09-30T01:35:26;12.95;90.92
65374;SHT31;52070;53.760;9.678;2023-09-30T01:37:53;12.95;90.64
65374;SHT31;52070;53.760;9.678;2023-09-30T01:40:21;12.92;90.50
65374;SHT31;52070;53.760;9.678;2023-09-30T01:42:48;12.85;90.48
65374;SHT31;52070;53.760;9.678;2023-09-30T01:45:14;12.79;90.53
65374;SHT31;52070;53.760;9.678;2023-09-30T01:47:41;12.74;90.71
65374;SHT31;52070;53.760;9.678;2023-09-30T01:50:09;12.72;90.87
65374;SHT31;52070;53.760;9.678;2023-09-30T01:52:36;12.67;90.98
65374;SHT31;52070;53.760;9.678;2023-09-30T01:55:03;12.65;90.96
65374;SHT31;52070;53.760;9.678;2023-09-30T01:57:31;12.67;90.98
65374;SHT31;52070;53.760;9.678;2023-09-30T01:59:58;12.64;90.96
65374;SHT31;52070;53.760;9.678;2023-09-30T02:02:25;12.64;90.98
65374;SHT31;52070;53.760;9.678;2023-09-30T02:04:53;12.61;91.02
65374;SHT31;52070;53.760;9.678;2023-09-30T02:07:20;12.55;91.12
65374;SHT31;52070;53.760;9.678;2023-09-30T02:09:47;12.59;91.20
65374;SHT31;52070;53.760;9.678;2023-09-30T02:12:14;12.61;91.17
65374;SHT31;52070;53.760;9.678;2023-09-30T02:14:43;12.59;91.19
65374;SHT31;52070;53.760;9.678;2023-09-30T02:17:12;12.62;91.18
65374;SHT31;52070;53.760;9.678;2023-09-30T02:19:39;12.67;91.15
65374;SHT31;52070;53.760;9.678;2023-09-30T02:22:06;12.64;91.10
65374;SHT31;52070;53.760;9.678;2023-09-30T02:24:33;12.69;91.10
65374;SHT31;52070;53.760;9.678;2023-09-30T02:27:00;12.61;91.12
65374;SHT31;52070;53.760;9.678;2023-09-30T02:29:27;12.57;91.25
65374;SHT31;52070;53.760;9.678;2023-09-30T02:31:55;12.61;91.36
65374;SHT31;52070;53.760;9.678;2023-09-30T02:34:22;12.58;91.40
65374;SHT31;52070;53.760;9.678;2023-09-30T02:36:49;12.61;91.38
65374;SHT31;52070;53.760;9.678;2023-09-30T02:39:17;12.61;91.40
65374;SHT31;52070;53.760;9.678;2023-09-30T02:41:45;12.61;91.44
65374;SHT31;52070;53.760;9.678;2023-09-30T02:44:12;12.62;91.53
65374;SHT31;52070;53.760;9.678;2023-09-30T02:46:39;12.65;91.50
65374;SHT31;52070;53.760;9.678;2023-09-30T02:49:08;12.61;91.52
65374;SHT31;52070;53.760;9.678;2023-09-30T02:51:34;12.58;91.46
65374;SHT31;52070;53.760;9.678;2023-09-30T02:54:02;12.55;91.50
65374;SHT31;52070;53.760;9.678;2023-09-30T02:56:30;12.52;91.58
65374;SHT31;52070;53.760;9.678;2023-09-30T02:58:57;12.48;91.67
65374;SHT31;52070;53.760;9.678;2023-09-30T03:01:25;12.49;91.80
65374;SHT31;52070;53.760;9.678;2023-09-30T03:03:52;12.49;91.87
65374;SHT31;52070;53.760;9.678;2023-09-30T03:06:20;12.52;91.90
65374;SHT31;52070;53.760;9.678;2023-09-30T03:08:47;12.54;91.88
65374;SHT31;52070;53.760;9.678;2023-09-30T03:11:14;12.48;91.86
65374;SHT31;52070;53.760;9.678;2023-09-30T03:13:41;12.52;91.88
65374;SHT31;52070;53.760;9.678;2023-09-30T03:16:08;12.52;91.88
65374;SHT31;52070;53.760;9.678;2023-09-30T03:18:35;12.57;91.90
65374;SHT31;52070;53.760;9.678;2023-09-30T03:21:02;12.54;91.84
65374;SHT31;52070;53.760;9.678;2023-09-30T03:23:40;12.55;91.78
65374;SHT31;52070;53.760;9.678;2023-09-30T03:26:07;12.49;91.73
65374;SHT31;52070;53.760;9.678;2023-09-30T03:28:35;12.47;91.81
65374;SHT31;52070;53.760;9.678;2023-09-30T03:31:03;12.47;91.87
65374;SHT31;52070;53.760;9.678;2023-09-30T03:33:31;12.49;91.88
65374;SHT31;52070;53.760;9.678;2023-09-30T03:35:59;12.45;91.84
65374;SHT31;52070;53.760;9.678;2023-09-30T03:38:26;12.42;91.88
65374;SHT31;52070;53.760;9.678;2023-09-30T03:40:54;12.40;92.00
65374;SHT31;52070;53.760;9.678;2023-09-30T03:43:23;12.38;92.08
65374;SHT31;52070;53.760;9.678;2023-09-30T03:45:50;12.41;92.16
65374;SHT31;52070;53.760;9.678;2023-09-30T03:48:17;12.40;92.15
65374;SHT31;52070;53.760;9.678;2023-09-30T03:50:44;12.38;92.13
65374;SHT31;52070;53.760;9.678;2023-09-30T03:53:11;12.33;92.19
65374;SHT31;52070;53.760;9.678;2023-09-30T03:55:38;12.34;92.31
65374;SHT31;52070;53.760;9.678;2023-09-30T03:58:06;12.25;92.46
65374;SHT31;52070;53.760;9.678;2023-09-30T04:00:33;12.25;92.53
65374;SHT31;52070;53.760;9.678;2023-09-30T04:03:01;12.25;92.57
65374;SHT31;52070;53.760;9.678;2023-09-30T04:05:28;12.21;92.60
65374;SHT31;52070;53.760;9.678;2023-09-30T04:07:57;12.20;92.74
65374;SHT31;52070;53.760;9.678;2023-09-30T04:10:24;12.20;92.78
65374;SHT31;52070;53.760;9.678;2023-09-30T04:12:52;12.18;92.84
65374;SHT31;52070;53.760;9.678;2023-09-30T04:15:21;12.12;92.81
65374;SHT31;52070;53.760;9.678;2023-09-30T04:17:48;12.07;92.94
65374;SHT31;52070;53.760;9.678;2023-09-30T04:20:17;12.04;93.06
65374;SHT31;52070;53.760;9.678;2023-09-30T04:22:49;12.01;93.13
65374;SHT31;52070;53.760;9.678;2023-09-30T04:25:17;12.00;93.13
65374;SHT31;52070;53.760;9.678;2023-09-30T04:27:44;12.00;93.13
65374;SHT31;52070;53.760;9.678;2023-09-30T04:30:13;11.98;93.18
65374;SHT31;52070;53.760;9.678;2023-09-30T04:32:42;11.96;93.19
65374;SHT31;52070;53.760;9.678;2023-09-30T04:35:09;11.96;93.23
65374;SHT31;52070;53.760;9.678;2023-09-30T04:37:37;11.98;93.23
65374;SHT31;52070;53.760;9.678;2023-09-30T04:40:05;11.98;93.22
65374;SHT31;52070;53.760;9.678;2023-09-30T04:42:41;11.96;93.22
65374;SHT31;52070;53.760;9.678;2023-09-30T04:45:10;12.00;93.24
65374;SHT31;52070;53.760;9.678;2023-09-30T04:47:38;12.01;93.24
65374;SHT31;52070;53.760;9.678;2023-09-30T04:50:08;12.03;93.20
65374;SHT31;52070;53.760;9.678;2023-09-30T04:52:35;11.98;93.15
65374;SHT31;52070;53.760;9.678;2023-09-30T04:55:03;12.03;93.15
65374;SHT31;52070;53.760;9.678;2023-09-30T04:57:30;12.01;93.15
65374;SHT31;52070;53.760;9.678;2023-09-30T04:59:57;12.00;93.10
65374;SHT31;52070;53.760;9.678;2023-09-30T05:02:25;12.00;93.18
65374;SHT31;52070;53.760;9.678;2023-09-30T05:04:52;12.01;93.16
65374;SHT31;52070;53.760;9.678;2023-09-30T05:07:21;12.00;93.11
65374;SHT31;52070;53.760;9.678;2023-09-30T05:09:48;12.00;93.13
65374;SHT31;52070;53.760;9.678;2023-09-30T05:12:15;12.00;93.15
65374;SHT31;52070;53.760;9.678;2023-09-30T05:14:42;12.03;93.17
65374;SHT31;52070;53.760;9.678;2023-09-30T05:17:10;12.03;93.16
65374;SHT31;52070;53.760;9.678;2023-09-30T05:19:37;11.98;93.16
65374;SHT31;52070;53.760;9.678;2023-09-30T05:22:04;11.97;93.18
65374;SHT31;52070;53.760;9.678;2023-09-30T05:24:33;12.00;93.26
65374;SHT31;52070;53.760;9.678;2023-09-30T05:27:00;12.00;93.24
65374;SHT31;52070;53.760;9.678;2023-09-30T05:29:28;12.00;93.31
65374;SHT31;52070;53.760;9.678;2023-09-30T05:31:55;12.01;93.24
65374;SHT31;52070;53.760;9.678;2023-09-30T05:34:22;12.03;93.29
65374;SHT31;52070;53.760;9.678;2023-09-30T05:36:50;12.03;93.27
65374;SHT31;52070;53.760;9.678;2023-09-30T05:39:17;12.03;93.25
65374;SHT31;52070;53.760;9.678;2023-09-30T05:41:47;12.06;93.25
65374;SHT31;52070;53.760;9.678;2023-09-30T05:44:14;12.07;93.23
65374;SHT31;52070;53.760;9.678;2023-09-30T05:46:41;12.08;93.20
65374;SHT31;52070;53.760;9.678;2023-09-30T05:49:09;12.10;93.14
65374;SHT31;52070;53.760;9.678;2023-09-30T05:51:39;12.12;93.14
65374;SHT31;52070;53.760;9.678;2023-09-30T05:54:06;12.14;93.05
65374;SHT31;52070;53.760;9.678;2023-09-30T05:56:35;12.16;92.98
65374;SHT31;52070;53.760;9.678;2023-09-30T05:59:05;12.12;92.97
65374;SHT31;52070;53.760;9.678;2023-09-30T06:01:32;12.14;92.97
65374;SHT31;52070;53.760;9.678;2023-09-30T06:03:59;12.17;92.99
65374;SHT31;52070;53.760;9.678;2023-09-30T06:06:27;12.20;92.95
65374;SHT31;52070;53.760;9.678;2023-09-30T06:08:55;12.18;92.99
65374;SHT31;52070;53.760;9.678;2023-09-30T06:11:24;12.21;92.93
65374;SHT31;52070;53.760;9.678;2023-09-30T06:13:54;12.23;92.87
65374;SHT31;52070;53.760;9.678;2023-09-30T06:16:22;12.20;92.88
65374;SHT31;52070;53.760;9.678;2023-09-30T06:18:52;12.25;92.87
65374;SHT31;52070;53.760;9.678;2023-09-30T06:21:20;12.28;92.85
65374;SHT31;52070;53.760;9.678;2023-09-30T06:23:47;12.30;92.81
65374;SHT31;52070;53.760;9.678;2023-09-30T06:26:17;12.35;92.71
65374;SHT31;52070;53.760;9.678;2023-09-30T06:28:44;12.35;92.69
65374;SHT31;52070;53.760;9.678;2023-09-30T06:31:14;12.37;92.57
65374;SHT31;52070;53.760;9.678;2023-09-30T06:33:42;12.35;92.55
65374;SHT31;52070;53.760;9.678;2023-09-30T06:36:09;12.37;92.58
65374;SHT31;52070;53.760;9.678;2023-09-30T06:38:36;12.42;92.48
65374;SHT31;52070;53.760;9.678;2023-09-30T06:41:04;12.48;92.34
65374;SHT31;52070;53.760;9.678;2023-09-30T06:43:31;12.49;92.36
65374;SHT31;52070;53.760;9.678;2023-09-30T06:45:58;12.52;92.32
65374;SHT31;52070;53.760;9.678;2023-09-30T06:48:26;12.64;92.06
65374;SHT31;52070;53.760;9.678;2023-09-30T06:50:54;12.65;91.94
65374;SHT31;52070;53.760;9.678;2023-09-30T06:53:21;12.74;91.91
65374;SHT31;52070;53.760;9.678;2023-09-30T06:55:49;12.78;91.78
65374;SHT31;52070;53.760;9.678;2023-09-30T06:58:17;12.85;91.58
65374;SHT31;52070;53.760;9.678;2023-09-30T07:00:47;12.87;91.58
65374;SHT31;52070;53.760;9.678;2023-09-30T07:03:15;12.91;91.40
65374;SHT31;52070;53.760;9.678;2023-09-30T07:05:42;12.96;91.20
65374;SHT31;52070;53.760;9.678;2023-09-30T07:08:10;12.99;90.82
65374;SHT31;52070;53.760;9.678;2023-09-30T07:10:38;13.06;90.78
65374;SHT31;52070;53.760;9.678;2023-09-30T07:13:05;13.10;90.82
65374;SHT31;52070;53.760;9.678;2023-09-30T07:15:33;13.13;90.78
65374;SHT31;52070;53.760;9.678;2023-09-30T07:18:00;13.18;90.77
65374;SHT31;52070;53.760;9.678;2023-09-30T07:20:27;13.29;90.63
65374;SHT31;52070;53.760;9.678;2023-09-30T07:22:54;13.30;90.49
65374;SHT31;52070;53.760;9.678;2023-09-30T07:25:23;13.33;90.07
65374;SHT31;52070;53.760;9.678;2023-09-30T07:27:50;13.39;89.92
65374;SHT31;52070;53.760;9.678;2023-09-30T07:30:17;13.46;89.70
65374;SHT31;52070;53.760;9.678;2023-09-30T07:32:45;13.49;89.59
65374;SHT31;52070;53.760;9.678;2023-09-30T07:35:12;13.56;89.74
65374;SHT31;52070;53.760;9.678;2023-09-30T07:37:41;13.60;89.62
65374;SHT31;52070;53.760;9.678;2023-09-30T07:40:09;13.62;89.23
65374;SHT31;52070;53.760;9.678;2023-09-30T07:42:37;13.66;89.30
65374;SHT31;52070;53.760;9.678;2023-09-30T07:45:05;13.73;89.20
65374;SHT31;52070;53.760;9.678;2023-09-30T07:47:32;13.77;88.75
65374;SHT31;52070;53.760;9.678;2023-09-30T07:49:59;13.84;88.50
65374;SHT31;52070;53.760;9.678;2023-09-30T07:52:28;13.91;88.22
65374;SHT31;52070;53.760;9.678;2023-09-30T07:54:54;13.98;88.01
65374;SHT31;52070;53.760;9.678;2023-09-30T07:57:21;14.04;88.03
65374;SHT31;52070;53.760;9.678;2023-09-30T07:59:50;14.08;88.18
65374;SHT31;52070;53.760;9.678;2023-09-30T08:02:17;14.11;87.69
65374;SHT31;52070;53.760;9.678;2023-09-30T08:04:44;14.18;87.81
65374;SHT31;52070;53.760;9.678;2023-09-30T08:07:11;14.24;87.61
65374;SHT31;52070;53.760;9.678;2023-09-30T08:09:38;14.29;87.14
65374;SHT31;52070;53.760;9.678;2023-09-30T08:12:05;14.31;87.01
65374;SHT31;52070;53.760;9.678;2023-09-30T08:14:33;14.36;87.45
65374;SHT31;52070;53.760;9.678;2023-09-30T08:17:01;14.39;87.24
65374;SHT31;52070;53.760;9.678;2023-09-30T08:19:29;14.46;86.67
65374;SHT31;52070;53.760;9.678;2023-09-30T08:21:56;14.52;86.82
65374;SHT31;52070;53.760;9.678;2023-09-30T08:24:23;14.56;86.74
65374;SHT31;52070;53.760;9.678;2023-09-30T08:26:50;14.59;86.36
65374;SHT31;52070;53.760;9.678;2023-09-30T08:29:17;14.61;86.29
65374;SHT31;52070;53.760;9.678;2023-09-30T08:31:44;14.65;85.90
65374;SHT31;52070;53.760;9.678;2023-09-30T08:34:13;14.66;85.74
65374;SHT31;52070;53.760;9.678;2023-09-30T08:36:40;14.76;86.14
65374;SHT31;52070;53.760;9.678;2023-09-30T08:39:07;14.82;85.85
65374;SHT31;52070;53.760;9.678;2023-09-30T08:41:36;14.93;86.21
65374;SHT31;52070;53.760;9.678;2023-09-30T08:44:03;14.99;85.47
65374;SHT31;52070;53.760;9.678;2023-09-30T08:46:32;15.04;85.12
65374;SHT31;52070;53.760;9.678;2023-09-30T08:49:01;15.14;85.40
65374;SHT31;52070;53.760;9.678;2023-09-30T08:51:30;15.16;84.50
65374;SHT31;52070;53.760;9.678;2023-09-30T08:53:57;15.18;84.57
65374;SHT31;52070;53.760;9.678;2023-09-30T08:56:27;15.27;83.90
65374;SHT31;52070;53.760;9.678;2023-09-30T08:58:56;15.37;84.26
65374;SHT31;52070;53.760;9.678;2023-09-30T09:01:24;15.41;83.71
65374;SHT31;52070;53.760;9.678;2023-09-30T09:03:51;15.43;83.57
65374;SHT31;52070;53.760;9.678;2023-09-30T09:06:19;15.50;83.61
65374;SHT31;52070;53.760;9.678;2023-09-30T09:08:48;15.53;83.25
65374;SHT31;52070;53.760;9.678;2023-09-30T09:11:15;15.54;83.11
65374;SHT31;52070;53.760;9.678;2023-09-30T09:13:47;15.51;82.67
65374;SHT31;52070;53.760;9.678;2023-09-30T09:16:16;15.51;83.11
65374;SHT31;52070;53.760;9.678;2023-09-30T09:18:45;15.68;83.57
65374;SHT31;52070;53.760;9.678;2023-09-30T09:21:14;15.80;83.80
65374;SHT31;52070;53.760;9.678;2023-09-30T09:23:42;15.88;83.36
65374;SHT31;52070;53.760;9.678;2023-09-30T09:26:12;16.00;82.78
65374;SHT31;52070;53.760;9.678;2023-09-30T09:28:39;15.98;82.40
65374;SHT31;52070;53.760;9.678;2023-09-30T09:31:21;16.05;82.62
65374;SHT31;52070;53.760;9.678;2023-09-30T09:33:51;16.19;83.21
65374;SHT31;52070;53.760;9.678;2023-09-30T09:36:19;16.24;82.16
65374;SHT31;52070;53.760;9.678;2023-09-30T09:38:48;16.28;81.11
65374;SHT31;52070;53.760;9.678;2023-09-30T09:41:17;16.44;81.41
65374;SHT31;52070;53.760;9.678;2023-09-30T09:43:44;16.56;80.93
65374;SHT31;52070;53.760;9.678;2023-09-30T09:46:12;16.59;80.63
65374;SHT31;52070;53.760;9.678;2023-09-30T09:48:40;16.53;80.21
65374;SHT31;52070;53.760;9.678;2023-09-30T09:51:09;16.63;80.50
65374;SHT31;52070;53.760;9.678;2023-09-30T09:53:39;16.70;80.25
65374;SHT31;52070;53.760;9.678;2023-09-30T09:56:08;16.72;80.30
65374;SHT31;52070;53.760;9.678;2023-09-30T09:58:39;16.84;80.50
65374;SHT31;52070;53.760;9.678;2023-09-30T10:01:09;16.91;79.21
65374;SHT31;52070;53.760;9.678;2023-09-30T10:03:38;17.04;79.73
65374;SHT31;52070;53.760;9.678;2023-09-30T10:06:06;17.17;77.96
65374;SHT31;52070;53.760;9.678;2023-09-30T10:08:37;17.35;78.04
65374;SHT31;52070;53.760;9.678;2023-09-30T10:11:06;17.44;76.72
65374;SHT31;52070;53.760;9.678;2023-09-30T10:14:04;17.09;77.65
65374;SHT31;52070;53.760;9.678;2023-09-30T10:16:50;17.20;78.47
65374;SHT31;52070;53.760;9.678;2023-09-30T10:19:20;17.40;77.31
65374;SHT31;52070;53.760;9.678;2023-09-30T10:22:20;17.60;77.74
65374;SHT31;52070;53.760;9.678;2023-09-30T10:24:48;17.48;76.43
65374;SHT31;52070;53.760;9.678;2023-09-30T10:27:35;17.61;75.00
65374;SHT31;52070;53.760;9.678;2023-09-30T10:30:09;17.74;74.51
65374;SHT31;52070;53.760;9.678;2023-09-30T10:33:10;17.68;74.77
65374;SHT31;52070;53.760;9.678;2023-09-30T10:35:45;17.79;74.44
65374;SHT31;52070;53.760;9.678;2023-09-30T10:38:37;17.92;75.06
65374;SHT31;52070;53.760;9.678;2023-09-30T10:41:03;18.21;73.65
65374;SHT31;52070;53.760;9.678;2023-09-30T10:43:31;18.55;73.68
65374;SHT31;52070;53.760;9.678;2023-09-30T10:46:00;18.35;72.76
65374;SHT31;52070;53.760;9.678;2023-09-30T10:48:36;18.28;72.75
65374;SHT31;52070;53.760;9.678;2023-09-30T10:51:11;18.40;72.67
65374;SHT31;52070;53.760;9.678;2023-09-30T10:53:42;18.37;71.67
65374;SHT31;52070;53.760;9.678;2023-09-30T10:56:10;18.67;72.13
65374;SHT31;52070;53.760;9.678;2023-09-30T10:58:41;18.83;71.67
65374;SHT31;52070;53.760;9.678;2023-09-30T11:01:10;19.15;71.19
65374;SHT31;52070;53.760;9.678;2023-09-30T11:03:39;19.42;71.52
65374;SHT31;52070;53.760;9.678;2023-09-30T11:06:06;19.18;70.20
65374;SHT31;52070;53.760;9.678;2023-09-30T11:08:33;19.10;69.41
65374;SHT31;52070;53.760;9.678;2023-09-30T11:11:02;19.11;69.31
65374;SHT31;52070;53.760;9.678;2023-09-30T11:13:32;19.41;69.00
65374;SHT31;52070;53.760;9.678;2023-09-30T11:16:01;19.38;67.53
65374;SHT31;52070;53.760;9.678;2023-09-30T11:18:32;19.28;67.30
65374;SHT31;52070;53.760;9.678;2023-09-30T11:21:07;18.78;66.90
65374;SHT31;52070;53.760;9.678;2023-09-30T11:23:34;18.57;67.10
65374;SHT31;52070;53.760;9.678;2023-09-30T11:26:01;18.21;68.40
65374;SHT31;52070;53.760;9.678;2023-09-30T11:28:36;18.01;69.51
65374;SHT31;52070;53.760;9.678;2023-09-30T11:31:08;17.92;70.32
65374;SHT31;52070;53.760;9.678;2023-09-30T11:33:51;17.77;70.44
65374;SHT31;52070;53.760;9.678;2023-09-30T11:36:19;17.79;69.50
65374;SHT31;52070;53.760;9.678;2023-09-30T11:38:48;17.74;70.34
65374;SHT31;52070;53.760;9.678;2023-09-30T11:41:16;17.68;70.10
65374;SHT31;52070;53.760;9.678;2023-09-30T11:44:01;17.68;70.06
65374;SHT31;52070;53.760;9.678;2023-09-30T11:46:30;18.35;70.03
65374;SHT31;52070;53.760;9.678;2023-09-30T11:49:01;18.64;68.17
65374;SHT31;52070;53.760;9.678;2023-09-30T11:51:29;18.33;69.61
65374;SHT31;52070;53.760;9.678;2023-09-30T11:53:57;18.22;69.47
65374;SHT31;52070;53.760;9.678;2023-09-30T11:56:24;17.95;69.81
65374;SHT31;52070;53.760;9.678;2023-09-30T11:58:56;18.13;71.02
65374;SHT31;52070;53.760;9.678;2023-09-30T12:01:24;17.98;70.80
65374;SHT31;52070;53.760;9.678;2023-09-30T12:03:52;17.84;70.94
65374;SHT31;52070;53.760;9.678;2023-09-30T12:06:23;17.60;70.75
65374;SHT31;52070;53.760;9.678;2023-09-30T12:08:51;17.45;71.11
65374;SHT31;52070;53.760;9.678;2023-09-30T12:11:18;17.44;71.58
65374;SHT31;52070;53.760;9.678;2023-09-30T12:13:45;17.44;71.45
65374;SHT31;52070;53.760;9.678;2023-09-30T12:16:14;17.45;72.34
65374;SHT31;52070;53.760;9.678;2023-09-30T12:18:41;17.47;72.64
65374;SHT31;52070;53.760;9.678;2023-09-30T12:21:09;17.54;73.08
65374;SHT31;52070;53.760;9.678;2023-09-30T12:23:37;17.74;71.59
65374;SHT31;52070;53.760;9.678;2023-09-30T12:26:04;18.36;70.63
65374;SHT31;52070;53.760;9.678;2023-09-30T12:28:31;18.88;69.77
65374;SHT31;52070;53.760;9.678;2023-09-30T12:30:59;19.06;68.79
65374;SHT31;52070;53.760;9.678;2023-09-30T12:33:28;19.12;65.50
65374;SHT31;52070;53.760;9.678;2023-09-30T12:35:56;18.98;66.41
65374;SHT31;52070;53.760;9.678;2023-09-30T12:38:23;18.71;66.54
65374;SHT31;52070;53.760;9.678;2023-09-30T12:40:53;18.66;66.53
65374;SHT31;52070;53.760;9.678;2023-09-30T12:43:20;18.76;66.33
65374;SHT31;52070;53.760;9.678;2023-09-30T12:45:48;19.17;66.82
65374;SHT31;52070;53.760;9.678;2023-09-30T12:48:15;19.28;65.41
65374;SHT31;52070;53.760;9.678;2023-09-30T12:50:43;19.48;66.68
65374;SHT31;52070;53.760;9.678;2023-09-30T12:53:10;19.42;64.00
65374;SHT31;52070;53.760;9.678;2023-09-30T12:55:37;19.11;65.71
65374;SHT31;52070;53.760;9.678;2023-09-30T12:58:05;18.60;66.88
65374;SHT31;52070;53.760;9.678;2023-09-30T13:00:34;18.32;67.82
65374;SHT31;52070;53.760;9.678;2023-09-30T13:03:03;18.02;68.42
65374;SHT31;52070;53.760;9.678;2023-09-30T13:05:30;17.86;69.43
65374;SHT31;52070;53.760;9.678;2023-09-30T13:07:57;17.72;70.13
65374;SHT31;52070;53.760;9.678;2023-09-30T13:10:24;17.54;70.06
65374;SHT31;52070;53.760;9.678;2023-09-30T13:12:51;17.44;71.08
65374;SHT31;52070;53.760;9.678;2023-09-30T13:15:21;17.42;72.04
65374;SHT31;52070;53.760;9.678;2023-09-30T13:17:49;17.47;72.39
65374;SHT31;52070;53.760;9.678;2023-09-30T13:20:16;17.51;72.64
65374;SHT31;52070;53.760;9.678;2023-09-30T13:22:43;17.45;72.66
65374;SHT31;52070;53.760;9.678;2023-09-30T13:25:11;17.50;72.46
65374;SHT31;52070;53.760;9.678;2023-09-30T13:27:38;17.51;72.75
65374;SHT31;52070;53.760;9.678;2023-09-30T13:30:07;17.54;72.91
65374;SHT31;52070;53.760;9.678;2023-09-30T13:32:36;17.47;73.12
65374;SHT31;52070;53.760;9.678;2023-09-30T13:35:03;17.44;72.71
65374;SHT31;52070;53.760;9.678;2023-09-30T13:37:31;17.48;73.47
65374;SHT31;52070;53.760;9.678;2023-09-30T13:39:59;17.50;73.72
65374;SHT31;52070;53.760;9.678;2023-09-30T13:42:27;17.52;73.20
65374;SHT31;52070;53.760;9.678;2023-09-30T13:44:54;17.55;73.30
65374;SHT31;52070;53.760;9.678;2023-09-30T13:47:24;17.52;73.37
65374;SHT31;52070;53.760;9.678;2023-09-30T13:49:52;17.54;73.06
65374;SHT31;52070;53.760;9.678;2023-09-30T13:52:20;17.48;73.11
65374;SHT31;52070;53.760;9.678;2023-09-30T13:54:47;17.45;72.74
65374;SHT31;52070;53.760;9.678;2023-09-30T13:57:14;17.32;74.02
65374;SHT31;52070;53.760;9.678;2023-09-30T13:59:41;17.30;73.23
65374;SHT31;52070;53.760;9.678;2023-09-30T14:02:08;17.27;72.93
65374;SHT31;52070;53.760;9.678;2023-09-30T14:04:35;17.27;73.33
65374;SHT31;52070;53.760;9.678;2023-09-30T14:07:04;17.30;73.45
65374;SHT31;52070;53.760;9.678;2023-09-30T14:09:33;17.32;74.11
65374;SHT31;52070;53.760;9.678;2023-09-30T14:12:01;17.38;74.39
65374;SHT31;52070;53.760;9.678;2023-09-30T14:14:31;17.41;71.53
65374;SHT31;52070;53.760;9.678;2023-09-30T14:16:58;17.37;70.26
65374;SHT31;52070;53.760;9.678;2023-09-30T14:19:25;17.37;70.73
65374;SHT31;52070;53.760;9.678;2023-09-30T14:21:54;17.35;70.94
65374;SHT31;52070;53.760;9.678;2023-09-30T14:24:23;17.41;71.29
65374;SHT31;52070;53.760;9.678;2023-09-30T14:26:50;17.41;69.77
65374;SHT31;52070;53.760;9.678;2023-09-30T14:29:17;17.38;68.34
65374;SHT31;52070;53.760;9.678;2023-09-30T14:31:44;17.41;69.29
65374;SHT31;52070;53.760;9.678;2023-09-30T14:34:11;17.45;69.08
65374;SHT31;52070;53.760;9.678;2023-09-30T14:36:38;17.64;68.45
65374;SHT31;52070;53.760;9.678;2023-09-30T14:39:05;17.78;68.79
65374;SHT31;52070;53.760;9.678;2023-09-30T14:41:33;17.88;68.66
65374;SHT31;52070;53.760;9.678;2023-09-30T14:44:00;17.86;68.64
65374;SHT31;52070;53.760;9.678;2023-09-30T14:46:29;17.89;68.28
65374;SHT31;52070;53.760;9.678;2023-09-30T14:48:56;17.92;68.16
65374;SHT31;52070;53.760;9.678;2023-09-30T14:51:23;17.85;68.24
65374;SHT31;52070;53.760;9.678;2023-09-30T14:53:50;17.85;68.45
65374;SHT31;52070;53.760;9.678;2023-09-30T14:56:18;17.81;69.04
65374;SHT31;52070;53.760;9.678;2023-09-30T14:58:46;17.78;69.71
65374;SHT31;52070;53.760;9.678;2023-09-30T15:01:13;17.70;69.27
65374;SHT31;52070;53.760;9.678;2023-09-30T15:03:40;17.62;69.34
65374;SHT31;52070;53.760;9.678;2023-09-30T15:06:07;17.62;70.52
65374;SHT31;52070;53.760;9.678;2023-09-30T15:08:35;17.64;70.46
65374;SHT31;52070;53.760;9.678;2023-09-30T15:11:02;17.65;70.30
65374;SHT31;52070;53.760;9.678;2023-09-30T15:13:29;17.58;69.99
65374;SHT31;52070;53.760;9.678;2023-09-30T15:15:57;17.51;69.95
65374;SHT31;52070;53.760;9.678;2023-09-30T15:18:24;17.50;70.82
65374;SHT31;52070;53.760;9.678;2023-09-30T15:20:51;17.47;71.46
65374;SHT31;52070;53.760;9.678;2023-09-30T15:23:18;17.44;70.94
65374;SHT31;52070;53.760;9.678;2023-09-30T15:25:46;17.42;70.66
65374;SHT31;52070;53.760;9.678;2023-09-30T15:28:13;17.34;70.04
65374;SHT31;52070;53.760;9.678;2023-09-30T15:30:40;17.34;70.96
65374;SHT31;52070;53.760;9.678;2023-09-30T15:33:08;17.31;71.10
65374;SHT31;52070;53.760;9.678;2023-09-30T15:35:35;17.31;72.07
65374;SHT31;52070;53.760;9.678;2023-09-30T15:38:03;17.32;72.79